createdAt,value
2022-10-22T00:01:12.844Z,11.60
2022-10-22T00:03:40.765Z,11.70
2022-10-22T00:06:08.865Z,11.70
2022-10-22T00:08:36.897Z,11.60
2022-10-22T00:11:11.762Z,11.50
2022-10-22T00:13:42.481Z,11.50
2022-10-22T00:16:12.772Z,11.50
2022-10-22T00:18:40.729Z,11.40
2022-10-22T00:21:08.829Z,11.50
2022-10-22T00:23:39.153Z,11.40
2022-10-22T00:26:09.335Z,11.40
2022-10-22T00:28:39.560Z,11.30
2022-10-22T00:31:07.647Z,11.30
2022-10-22T00:33:35.937Z,11.20
2022-10-22T00:36:04.285Z,11.20
2022-10-22T00:38:32.161Z,11.20
2022-10-22T00:43:54.621Z,11.20
2022-10-22T00:46:23.053Z,11.20
2022-10-22T00:48:51.502Z,11.10
2022-10-22T00:51:21.114Z,11.10
2022-10-22T00:53:56.345Z,11.10
2022-10-22T00:56:24.981Z,11.10
2022-10-22T00:58:54.254Z,11.00
2022-10-22T01:01:26.893Z,11.00
2022-10-22T01:03:55.137Z,11.00
2022-10-22T01:06:33.597Z,10.90
2022-10-22T01:09:04.036Z,10.80
2022-10-22T01:11:44.304Z,10.90
2022-10-22T01:14:17.897Z,10.90
2022-10-22T01:17:01.810Z,10.80
2022-10-22T01:19:44.253Z,10.80
2022-10-22T01:22:18.092Z,10.70
2022-10-22T01:24:46.001Z,10.70
2022-10-22T01:27:40.549Z,10.70
2022-10-22T01:30:10.286Z,10.70
2022-10-22T01:32:46.069Z,10.70
2022-10-22T01:35:16.134Z,10.70
2022-10-22T01:37:47.040Z,10.60
2022-10-22T01:40:18.910Z,10.60
2022-10-22T01:42:57.799Z,10.50
2022-10-22T01:45:25.875Z,10.50
2022-10-22T01:47:59.790Z,10.40
2022-10-22T01:50:39.806Z,10.30
2022-10-22T01:53:19.370Z,10.30
2022-10-22T01:56:07.787Z,10.30
2022-10-22T01:58:57.859Z,10.30
2022-10-22T02:01:44.546Z,10.30
2022-10-22T02:04:16.154Z,10.20
2022-10-22T02:06:48.045Z,10.20
2022-10-22T02:09:16.915Z,10.20
2022-10-22T02:11:45.452Z,10.20
2022-10-22T02:14:14.792Z,10.20
2022-10-22T02:16:44.284Z,10.20
2022-10-22T02:19:19.520Z,10.20
2022-10-22T02:21:47.618Z,10.20
2022-10-22T02:24:15.723Z,10.10
2022-10-22T02:26:47.105Z,10.10
2022-10-22T02:29:19.210Z,10.10
2022-10-22T02:31:48.333Z,10.10
2022-10-22T02:34:18.743Z,10.10
2022-10-22T02:36:49.723Z,10.10
2022-10-22T02:39:20.401Z,10.00
2022-10-22T02:41:48.634Z,10.00
2022-10-22T02:44:16.596Z,10.00
2022-10-22T02:46:44.519Z,10.00
2022-10-22T02:49:12.501Z,10.00
2022-10-22T02:51:40.573Z,10.00
2022-10-22T02:54:08.450Z,9.90
2022-10-22T02:56:36.941Z,9.90
2022-10-22T02:59:04.910Z,9.90
2022-10-22T03:01:32.810Z,9.80
2022-10-22T03:04:00.884Z,9.80
2022-10-22T03:06:28.849Z,9.80
2022-10-22T03:08:57.247Z,9.80
2022-10-22T03:11:25.213Z,9.70
2022-10-22T03:13:53.322Z,9.70
2022-10-22T03:16:21.226Z,9.70
2022-10-22T03:18:49.153Z,9.60
2022-10-22T03:21:24.776Z,9.50
2022-10-22T03:23:52.800Z,9.50
2022-10-22T03:26:21.265Z,9.50
2022-10-22T03:28:49.471Z,9.40
2022-10-22T03:31:17.594Z,9.40
2022-10-22T03:33:45.615Z,9.40
2022-10-22T03:36:13.557Z,9.40
2022-10-22T03:38:41.729Z,9.30
2022-10-22T03:41:10.043Z,9.30
2022-10-22T03:43:38.240Z,9.30
2022-10-22T03:46:06.237Z,9.30
2022-10-22T03:48:34.211Z,9.30
2022-10-22T03:51:02.154Z,9.20
2022-10-22T03:53:30.142Z,9.30
2022-10-22T03:55:58.257Z,9.30
2022-10-22T03:58:28.530Z,9.30
2022-10-22T04:00:56.606Z,9.30
2022-10-22T04:03:24.718Z,9.30
2022-10-22T04:05:55.054Z,9.20
2022-10-22T04:08:23.016Z,9.20
2022-10-22T04:10:53.986Z,9.20
2022-10-22T04:13:21.975Z,9.20
2022-10-22T04:15:52.181Z,9.20
2022-10-22T04:18:20.614Z,9.20
2022-10-22T04:20:48.855Z,9.20
2022-10-22T04:23:16.939Z,9.10
2022-10-22T04:25:44.939Z,9.20
2022-10-22T04:28:12.847Z,9.10
2022-10-22T04:30:40.809Z,9.10
2022-10-22T04:33:08.713Z,9.10
2022-10-22T04:35:38.784Z,9.10
2022-10-22T04:38:06.807Z,9.10
2022-10-22T04:40:34.725Z,9.00
2022-10-22T04:43:02.889Z,9.10
2022-10-22T04:45:30.819Z,9.00
2022-10-22T04:48:01.132Z,9.00
2022-10-22T04:50:31.456Z,9.10
2022-10-22T04:52:59.495Z,9.00
2022-10-22T04:55:27.370Z,9.10
2022-10-22T04:57:55.332Z,9.10
2022-10-22T05:00:23.266Z,9.20
2022-10-22T05:02:51.372Z,9.20
2022-10-22T05:05:19.354Z,9.40
2022-10-22T05:07:47.286Z,9.50
2022-10-22T05:10:15.295Z,9.60
2022-10-22T05:12:43.362Z,9.70
2022-10-22T05:15:11.350Z,9.80
2022-10-22T05:17:39.534Z,9.80
2022-10-22T05:20:08.079Z,9.90
2022-10-22T05:22:36.062Z,10.00
2022-10-22T05:25:04.064Z,10.00
2022-10-22T05:27:31.949Z,10.10
2022-10-22T05:29:59.963Z,10.20
2022-10-22T05:32:29.073Z,10.20
2022-10-22T05:35:00.134Z,10.30
2022-10-22T05:37:28.163Z,10.30
2022-10-22T05:40:06.530Z,10.30
2022-10-22T05:42:47.080Z,10.30
2022-10-22T05:45:17.265Z,10.30
2022-10-22T05:47:45.228Z,10.30
2022-10-22T05:50:16.455Z,10.30
2022-10-22T05:52:44.401Z,10.40
2022-10-22T05:55:12.373Z,10.40
2022-10-22T05:57:40.990Z,10.40
2022-10-22T06:00:11.675Z,10.50
2022-10-22T06:02:42.683Z,10.50
2022-10-22T06:05:12.901Z,10.50
2022-10-22T06:07:40.878Z,10.50
2022-10-22T06:10:14.238Z,10.50
2022-10-22T06:12:42.561Z,10.60
2022-10-22T06:15:12.490Z,10.60
2022-10-22T06:17:40.432Z,10.60
2022-10-22T06:20:08.984Z,10.70
2022-10-22T06:22:36.909Z,10.80
2022-10-22T06:25:08.724Z,11.00
2022-10-22T06:27:36.745Z,11.10
2022-10-22T06:30:04.976Z,11.30
2022-10-22T06:32:33.009Z,11.50
2022-10-22T06:35:00.966Z,11.60
2022-10-22T06:37:28.906Z,11.80
2022-10-22T06:39:56.883Z,11.90
2022-10-22T06:42:24.836Z,12.00
2022-10-22T06:44:53.215Z,12.10
2022-10-22T06:47:23.523Z,12.10
2022-10-22T06:49:53.849Z,12.30
2022-10-22T06:52:21.765Z,12.40
2022-10-22T06:54:49.780Z,12.50
2022-10-22T06:57:17.708Z,12.60
2022-10-22T06:59:49.603Z,12.70
2022-10-22T07:02:17.596Z,12.80
2022-10-22T07:04:47.878Z,12.90
2022-10-22T07:07:15.939Z,13.00
2022-10-22T07:09:45.869Z,13.20
2022-10-22T07:12:14.416Z,13.50
2022-10-22T07:14:42.527Z,13.80
2022-10-22T07:17:10.650Z,13.90
2022-10-22T07:19:38.560Z,14.10
2022-10-22T07:22:09.711Z,14.60
2022-10-22T07:24:37.648Z,15.10
2022-10-22T07:27:09.425Z,15.50
2022-10-22T07:29:39.143Z,15.90
2022-10-22T07:32:09.363Z,16.00
2022-10-22T07:34:38.508Z,16.20
2022-10-22T07:37:08.944Z,16.40
2022-10-22T07:39:40.081Z,17.00
2022-10-22T07:42:08.258Z,17.90
2022-10-22T07:44:36.640Z,18.90
2022-10-22T07:47:04.787Z,19.60
2022-10-22T07:49:32.940Z,20.20
2022-10-22T07:52:01.273Z,21.00
2022-10-22T07:54:29.203Z,21.00
2022-10-22T07:56:57.971Z,21.10
2022-10-22T07:59:26.087Z,21.50
2022-10-22T08:01:54.230Z,21.70
2022-10-22T08:04:22.234Z,21.40
2022-10-22T08:06:50.379Z,21.00
2022-10-22T08:09:21.771Z,20.70
2022-10-22T08:11:49.873Z,20.40
2022-10-22T08:14:17.858Z,20.20
2022-10-22T08:16:45.822Z,20.00
2022-10-22T08:19:14.261Z,20.00
2022-10-22T08:21:42.459Z,20.00
2022-10-22T08:24:14.829Z,20.20
2022-10-22T08:26:43.912Z,20.40
2022-10-22T08:29:11.896Z,20.60
2022-10-22T08:31:39.897Z,21.00
2022-10-22T08:34:08.720Z,21.20
2022-10-22T08:36:36.707Z,21.10
2022-10-22T08:39:04.685Z,20.90
2022-10-22T08:41:34.524Z,20.90
2022-10-22T08:44:14.941Z,20.80
2022-10-22T08:46:47.859Z,20.90
2022-10-22T08:49:20.908Z,21.20
2022-10-22T08:51:49.034Z,21.50
2022-10-22T08:54:34.014Z,21.90
2022-10-22T08:57:06.286Z,22.60
2022-10-22T08:59:37.350Z,22.80
2022-10-22T09:02:10.001Z,22.90
2022-10-22T09:04:42.693Z,23.30
2022-10-22T09:07:11.009Z,23.80
2022-10-22T09:09:47.097Z,24.60
2022-10-22T09:12:20.130Z,25.30
2022-10-22T09:14:48.665Z,25.80
2022-10-22T09:17:21.114Z,26.20
2022-10-22T09:19:49.070Z,26.50
2022-10-22T09:22:40.344Z,26.80
2022-10-22T09:25:21.851Z,27.10
2022-10-22T09:27:50.760Z,27.50
2022-10-22T09:30:22.119Z,27.80
2022-10-22T09:32:56.621Z,28.00
2022-10-22T09:35:25.324Z,28.30
2022-10-22T09:37:55.030Z,28.60
2022-10-22T09:40:24.039Z,28.80
2022-10-22T09:42:51.976Z,29.20
2022-10-22T09:45:21.319Z,29.70
2022-10-22T09:48:01.522Z,30.40
2022-10-22T09:50:41.762Z,31.20
2022-10-22T09:53:19.172Z,31.50
2022-10-22T09:58:22.645Z,29.80
2022-10-22T10:00:58.487Z,29.00
2022-10-22T10:03:33.372Z,28.60
2022-10-22T10:06:05.970Z,28.50
2022-10-22T10:08:34.844Z,28.60
2022-10-22T10:11:06.097Z,28.80
2022-10-22T10:13:43.071Z,28.80
2022-10-22T10:16:26.588Z,29.20
2022-10-22T10:18:57.703Z,30.00
2022-10-22T10:21:26.058Z,30.70
2022-10-22T10:23:56.870Z,31.10
2022-10-22T10:26:48.005Z,31.50
2022-10-22T10:29:15.928Z,31.80
2022-10-22T10:31:59.529Z,32.00
2022-10-22T10:34:39.486Z,32.30
2022-10-22T10:37:22.955Z,32.50
2022-10-22T10:39:57.969Z,31.90
2022-10-22T10:42:46.741Z,31.10
2022-10-22T10:45:33.854Z,30.90
2022-10-22T10:48:10.309Z,31.40
2022-10-22T10:50:57.626Z,31.20
2022-10-22T10:53:31.611Z,30.90
2022-10-22T10:56:03.089Z,31.40
2022-10-22T10:58:36.499Z,31.90
2022-10-22T11:01:23.449Z,32.50
2022-10-22T11:03:51.426Z,33.10
2022-10-22T11:06:25.507Z,32.90
2022-10-22T11:09:03.527Z,32.90
2022-10-22T11:11:31.495Z,33.00
2022-10-22T11:14:06.775Z,33.50
2022-10-22T11:16:42.934Z,33.90
2022-10-22T11:19:51.039Z,34.20
2022-10-22T11:22:22.418Z,34.50
2022-10-22T11:24:56.594Z,33.90
2022-10-22T11:27:32.282Z,33.10
2022-10-22T11:30:03.208Z,32.30
2022-10-22T11:32:32.320Z,31.60
2022-10-22T11:35:02.834Z,31.20
2022-10-22T11:37:34.961Z,31.00
2022-10-22T11:40:08.289Z,30.60
2022-10-22T11:42:43.593Z,30.40
2022-10-22T11:45:14.617Z,30.20
2022-10-22T11:47:57.903Z,30.00
2022-10-22T11:50:28.112Z,29.80
2022-10-22T11:53:02.236Z,29.70
2022-10-22T11:55:49.435Z,29.70
2022-10-22T11:58:30.398Z,29.80
2022-10-22T12:01:17.697Z,29.80
2022-10-22T12:03:56.651Z,29.60
2022-10-22T12:06:29.405Z,29.60
2022-10-22T12:09:03.498Z,29.60
2022-10-22T12:11:46.414Z,29.80
2022-10-22T12:14:17.111Z,30.20
2022-10-22T12:17:05.337Z,30.20
2022-10-22T12:19:37.434Z,30.10
2022-10-22T12:22:08.434Z,29.90
2022-10-22T12:24:41.375Z,29.60
2022-10-22T12:27:33.504Z,29.30
2022-10-22T12:30:02.782Z,29.30
2022-10-22T12:32:35.886Z,29.40
2022-10-22T12:35:05.802Z,29.40
2022-10-22T12:37:36.303Z,29.30
2022-10-22T12:40:30.914Z,29.00
2022-10-22T12:43:00.029Z,28.80
2022-10-22T12:45:29.647Z,28.90
2022-10-22T12:47:59.424Z,29.10
2022-10-22T12:50:33.255Z,29.70
2022-10-22T12:53:01.238Z,30.50
2022-10-22T12:55:31.356Z,31.10
2022-10-22T12:57:59.503Z,31.40
2022-10-22T13:00:33.150Z,31.60
2022-10-22T13:03:04.592Z,31.60
2022-10-22T13:05:39.277Z,31.30
2022-10-22T13:08:12.303Z,31.20
2022-10-22T13:10:41.802Z,30.70
2022-10-22T13:13:29.682Z,29.90
2022-10-22T13:16:12.706Z,29.70
2022-10-22T13:18:41.145Z,29.70
2022-10-22T13:21:27.735Z,29.90
2022-10-22T13:23:57.364Z,30.00
2022-10-22T13:26:26.259Z,30.10
2022-10-22T13:28:57.949Z,30.00
2022-10-22T13:31:27.231Z,29.80
2022-10-22T13:34:01.386Z,29.80
2022-10-22T13:36:31.562Z,29.70
2022-10-22T13:38:59.568Z,29.60
2022-10-22T13:41:32.606Z,29.50
2022-10-22T13:44:00.718Z,29.30
2022-10-22T13:46:29.789Z,29.20
2022-10-22T13:48:59.242Z,29.10
2022-10-22T13:51:31.242Z,29.10
2022-10-22T13:53:59.469Z,28.90
2022-10-22T13:56:27.457Z,28.80
2022-10-22T13:58:56.336Z,28.70
2022-10-22T14:01:26.269Z,28.60
2022-10-22T14:03:55.878Z,28.40
2022-10-22T14:06:25.310Z,28.30
2022-10-22T14:08:58.754Z,28.20
2022-10-22T14:11:35.487Z,28.00
2022-10-22T14:14:09.125Z,27.90
2022-10-22T14:16:37.880Z,27.70
2022-10-22T14:19:07.744Z,27.50
2022-10-22T14:21:37.785Z,27.40
2022-10-22T14:24:08.357Z,27.10
2022-10-22T14:26:39.434Z,26.90
2022-10-22T14:29:09.784Z,26.80
2022-10-22T14:34:27.678Z,26.30
2022-10-22T14:36:55.792Z,26.10
2022-10-22T14:39:23.782Z,25.80
2022-10-22T14:41:51.804Z,25.60
2022-10-22T14:44:20.406Z,25.40
2022-10-22T14:46:48.377Z,25.20
2022-10-22T14:49:16.546Z,24.90
2022-10-22T14:51:47.761Z,24.80
2022-10-22T14:54:15.830Z,24.60
2022-10-22T14:56:43.780Z,24.50
2022-10-22T14:59:11.846Z,24.30
2022-10-22T15:01:39.945Z,24.20
2022-10-22T15:04:08.515Z,24.00
2022-10-22T15:06:36.621Z,24.00
2022-10-22T15:09:04.719Z,23.70
2022-10-22T15:11:32.925Z,23.60
2022-10-22T15:14:00.977Z,23.50
2022-10-22T15:16:28.893Z,23.20
2022-10-22T15:18:57.580Z,23.10
2022-10-22T15:21:25.728Z,23.00
2022-10-22T15:23:53.615Z,23.00
2022-10-22T15:26:21.635Z,22.90
2022-10-22T15:28:49.585Z,22.60
2022-10-22T15:31:40.376Z,22.50
2022-10-22T15:34:08.415Z,22.50
2022-10-22T15:36:36.421Z,22.50
2022-10-22T15:39:09.011Z,22.40
2022-10-22T15:41:37.400Z,22.20
2022-10-22T15:44:06.336Z,22.20
2022-10-22T15:46:36.875Z,22.20
2022-10-22T15:49:05.023Z,22.20
2022-10-22T15:51:33.157Z,22.10
2022-10-22T15:54:01.079Z,22.20
2022-10-22T15:56:29.896Z,22.10
2022-10-22T15:59:03.228Z,21.80
2022-10-22T16:01:32.452Z,21.80
2022-10-22T16:04:01.733Z,21.80
2022-10-22T16:06:59.024Z,21.70
2022-10-22T16:09:28.516Z,21.70
2022-10-22T16:11:56.749Z,21.60
2022-10-22T16:14:24.857Z,21.50
2022-10-22T16:16:53.854Z,21.30
2022-10-22T16:19:22.659Z,21.20
2022-10-22T16:21:51.609Z,21.10
2022-10-22T16:24:20.468Z,21.00
2022-10-22T16:26:48.803Z,21.00
2022-10-22T16:29:22.369Z,20.90
2022-10-22T16:31:50.559Z,20.80
2022-10-22T16:34:18.614Z,20.80
2022-10-22T16:36:49.185Z,20.80
2022-10-22T16:39:19.409Z,20.70
2022-10-22T16:41:47.754Z,20.70
2022-10-22T16:44:15.817Z,20.60
2022-10-22T16:46:43.832Z,20.50
2022-10-22T16:49:12.038Z,20.40
2022-10-22T16:51:40.060Z,20.40
2022-10-22T16:54:12.351Z,20.30
2022-10-22T16:56:40.863Z,20.30
2022-10-22T16:59:09.046Z,20.20
2022-10-22T17:01:40.891Z,20.10
2022-10-22T17:04:09.644Z,20.00
2022-10-22T17:06:37.593Z,20.00
2022-10-22T17:09:06.214Z,19.90
2022-10-22T17:11:37.032Z,19.80
2022-10-22T17:14:07.207Z,19.80
2022-10-22T17:16:35.187Z,19.70
2022-10-22T17:19:03.545Z,19.70
2022-10-22T17:21:31.498Z,19.70
2022-10-22T17:23:59.467Z,19.60
2022-10-22T17:26:27.449Z,19.60
2022-10-22T17:28:55.586Z,19.50
2022-10-22T17:31:24.990Z,19.50
2022-10-22T17:33:56.721Z,19.40
2022-10-22T17:36:24.983Z,19.30
2022-10-22T17:38:54.544Z,19.30
2022-10-22T17:41:24.249Z,19.20
2022-10-22T17:43:53.419Z,19.20
2022-10-22T17:46:25.573Z,19.20
2022-10-22T17:48:55.016Z,19.10
2022-10-22T17:51:23.473Z,19.10
2022-10-22T17:53:51.700Z,18.90
2022-10-22T17:56:21.470Z,18.90
2022-10-22T17:58:51.731Z,18.90
2022-10-22T18:01:24.182Z,18.80
2022-10-22T18:03:54.961Z,18.80
2022-10-22T18:06:23.793Z,18.70
2022-10-22T18:08:51.727Z,18.70
2022-10-22T18:11:21.431Z,18.60
2022-10-22T18:13:53.400Z,18.60
2022-10-22T18:16:21.390Z,18.60
2022-10-22T18:18:50.561Z,18.50
2022-10-22T18:21:18.901Z,18.40
2022-10-22T18:23:47.321Z,18.40
2022-10-22T18:26:15.498Z,18.40
2022-10-22T18:28:43.445Z,18.30
2022-10-22T18:31:17.040Z,18.30
2022-10-22T18:33:45.714Z,18.20
2022-10-22T18:36:16.175Z,18.20
2022-10-22T18:38:44.217Z,18.20
2022-10-22T18:41:13.982Z,18.10
2022-10-22T18:43:44.347Z,18.10
2022-10-22T18:46:13.617Z,18.00
2022-10-22T18:48:44.085Z,18.00
2022-10-22T18:51:14.280Z,18.00
2022-10-22T18:53:53.579Z,17.90
2022-10-22T18:56:30.764Z,17.90
2022-10-22T18:58:58.885Z,17.90
2022-10-22T19:01:29.760Z,17.80
2022-10-22T19:03:57.802Z,17.80
2022-10-22T19:06:34.325Z,17.70
2022-10-22T19:09:05.332Z,17.70
2022-10-22T19:11:33.483Z,17.60
2022-10-22T19:14:01.426Z,17.60
2022-10-22T19:16:29.460Z,17.50
2022-10-22T19:19:01.918Z,17.50
2022-10-22T19:21:30.012Z,17.40
2022-10-22T19:24:00.771Z,17.40
2022-10-22T19:26:30.300Z,17.30
2022-10-22T19:28:59.155Z,17.30
2022-10-22T19:31:31.579Z,17.30
2022-10-22T19:34:00.481Z,17.20
2022-10-22T19:36:29.206Z,17.10
2022-10-22T19:39:01.031Z,17.00
2022-10-22T19:41:32.294Z,16.90
2022-10-22T19:44:01.003Z,16.90
2022-10-22T19:46:30.176Z,16.90
2022-10-22T19:48:58.437Z,16.90
2022-10-22T19:51:27.944Z,16.70
2022-10-22T19:54:06.655Z,16.60
2022-10-22T19:56:37.892Z,16.60
2022-10-22T19:59:06.416Z,16.70
2022-10-22T20:01:34.990Z,16.60
2022-10-22T20:04:03.004Z,16.60
2022-10-22T20:06:34.157Z,16.50
2022-10-22T20:09:02.219Z,16.50
2022-10-22T20:11:30.415Z,16.40
2022-10-22T20:13:58.523Z,16.40
2022-10-22T20:16:30.300Z,16.30
2022-10-22T20:19:02.574Z,16.30
2022-10-22T20:21:31.115Z,16.20
2022-10-22T20:23:59.450Z,16.20
2022-10-22T20:26:28.536Z,16.10
2022-10-22T20:28:56.959Z,16.10
2022-10-22T20:31:29.643Z,16.00
2022-10-22T20:33:58.893Z,16.00
2022-10-22T20:36:27.301Z,16.10
2022-10-22T20:38:59.436Z,16.10
2022-10-22T20:41:27.486Z,16.10
2022-10-22T20:44:01.733Z,16.10
2022-10-22T20:46:35.404Z,16.10
2022-10-22T20:49:08.274Z,16.00
2022-10-22T20:51:36.759Z,15.90
2022-10-22T20:54:05.569Z,15.90
2022-10-22T20:56:33.871Z,15.90
2022-10-22T20:59:05.177Z,15.80
2022-10-22T21:01:37.675Z,15.70
2022-10-22T21:04:08.523Z,15.60
2022-10-22T21:06:38.515Z,15.60
2022-10-22T21:09:07.277Z,15.60
2022-10-22T21:11:36.495Z,15.60
2022-10-22T21:14:07.809Z,15.50
2022-10-22T21:16:36.246Z,15.50
2022-10-22T21:19:04.150Z,15.50
2022-10-22T21:21:32.186Z,15.50
2022-10-22T21:24:00.103Z,15.40
2022-10-22T21:26:30.337Z,15.40
2022-10-22T21:29:00.688Z,15.40
2022-10-22T21:31:28.680Z,15.40
2022-10-22T21:33:56.699Z,15.40
2022-10-22T21:36:25.365Z,15.30
2022-10-22T21:38:53.502Z,15.30
2022-10-22T21:41:22.421Z,15.30
2022-10-22T21:43:50.757Z,15.30
2022-10-22T21:46:20.281Z,15.20
2022-10-22T21:48:52.419Z,15.20
2022-10-22T21:51:20.995Z,15.30
2022-10-22T21:53:49.195Z,15.20
2022-10-22T21:56:20.870Z,15.20
2022-10-22T21:58:48.903Z,15.10
2022-10-22T22:01:17.548Z,15.20
2022-10-22T22:03:49.780Z,15.10
2022-10-22T22:06:21.429Z,15.10
2022-10-22T22:08:50.778Z,15.10
2022-10-22T22:11:20.075Z,15.20
2022-10-22T22:13:51.338Z,15.20
2022-10-22T22:16:27.255Z,15.20
2022-10-22T22:18:58.318Z,15.20
2022-10-22T22:21:28.656Z,15.10
2022-10-22T22:24:00.166Z,15.20
2022-10-22T22:26:29.895Z,15.20
2022-10-22T22:29:00.688Z,15.20
2022-10-22T22:31:30.749Z,15.20
2022-10-22T22:34:02.880Z,15.20
2022-10-22T22:36:38.100Z,15.10
2022-10-22T22:39:07.215Z,15.20
2022-10-22T22:41:35.398Z,15.10
2022-10-22T22:44:03.435Z,15.10
2022-10-22T22:46:31.488Z,15.10
2022-10-22T22:48:59.330Z,15.10
2022-10-22T22:51:27.703Z,15.00
2022-10-22T22:53:57.707Z,15.00
2022-10-22T22:56:26.687Z,15.00
2022-10-22T22:58:55.548Z,15.00
2022-10-22T23:01:24.845Z,15.00
2022-10-22T23:03:55.082Z,14.90
2022-10-22T23:06:24.017Z,15.00
2022-10-22T23:08:52.754Z,15.00
2022-10-22T23:11:21.463Z,15.00
2022-10-22T23:13:52.221Z,15.00
2022-10-22T23:16:20.784Z,15.00
2022-10-22T23:18:49.132Z,15.00
2022-10-22T23:21:18.304Z,14.90
2022-10-22T23:23:47.396Z,14.90
2022-10-22T23:26:16.731Z,14.90
2022-10-22T23:28:44.751Z,14.80
2022-10-22T23:31:14.015Z,14.80
2022-10-22T23:33:42.512Z,14.80
2022-10-22T23:36:10.667Z,14.80
2022-10-22T23:38:39.526Z,14.80
2022-10-22T23:41:07.924Z,14.70
2022-10-22T23:43:39.214Z,14.80
2022-10-22T23:46:08.659Z,14.80
2022-10-22T23:48:37.082Z,14.80
2022-10-22T23:51:07.770Z,14.70
2022-10-22T23:53:35.708Z,14.80
2022-10-22T23:56:04.869Z,14.80
2022-10-22T23:58:33.233Z,14.70
